createdAt,value
2018-08-11T00:02:26.613Z,14.91
2018-08-11T00:04:54.704Z,14.94
2018-08-11T00:07:22.811Z,14.96
2018-08-11T00:09:50.872Z,14.94
2018-08-11T00:12:18.970Z,14.86
2018-08-11T00:14:47.048Z,14.77
2018-08-11T00:17:15.136Z,14.77
2018-08-11T00:19:43.251Z,14.77
2018-08-11T00:22:11.381Z,14.82
2018-08-11T00:24:39.459Z,14.76
2018-08-11T00:27:07.553Z,14.70
2018-08-11T00:29:35.648Z,14.65
2018-08-11T00:32:03.767Z,14.72
2018-08-11T00:34:31.860Z,14.78
2018-08-11T00:36:59.967Z,14.63
2018-08-11T00:39:28.058Z,14.69
2018-08-11T00:41:56.138Z,14.58
2018-08-11T00:44:24.236Z,14.65
2018-08-11T00:46:53.364Z,14.63
2018-08-11T00:49:21.501Z,14.57
2018-08-11T00:51:49.527Z,14.53
2018-08-11T00:54:17.584Z,14.54
2018-08-11T00:56:45.680Z,14.57
2018-08-11T00:59:13.799Z,14.53
2018-08-11T01:01:41.882Z,14.61
2018-08-11T01:04:10.025Z,14.58
2018-08-11T01:06:38.119Z,14.61
2018-08-11T01:09:08.743Z,14.67
2018-08-11T01:11:36.843Z,14.63
2018-08-11T01:14:04.957Z,14.66
2018-08-11T01:16:33.053Z,14.64
2018-08-11T01:19:01.189Z,14.61
2018-08-11T01:21:29.307Z,14.58
2018-08-11T01:23:57.445Z,14.54
2018-08-11T01:26:25.574Z,14.53
2018-08-11T01:28:53.666Z,14.55
2018-08-11T01:31:21.796Z,14.56
2018-08-11T01:33:49.923Z,14.53
2018-08-11T01:36:18.042Z,14.42
2018-08-11T01:38:46.179Z,14.43
2018-08-11T01:41:14.332Z,14.35
2018-08-11T01:43:42.411Z,14.39
2018-08-11T01:46:10.517Z,14.43
2018-08-11T01:48:38.613Z,14.43
2018-08-11T01:51:06.703Z,14.36
2018-08-11T01:53:34.835Z,14.28
2018-08-11T01:56:02.924Z,14.29
2018-08-11T01:58:31.067Z,14.28
2018-08-11T02:00:59.453Z,14.35
2018-08-11T02:03:27.559Z,14.32
2018-08-11T02:05:55.691Z,14.26
2018-08-11T02:08:23.813Z,14.31
2018-08-11T02:10:51.876Z,14.22
2018-08-11T02:13:20.040Z,14.20
2018-08-11T02:15:48.172Z,14.13
2018-08-11T02:18:16.244Z,14.11
2018-08-11T02:20:44.377Z,14.24
2018-08-11T02:23:12.455Z,14.30
2018-08-11T02:25:40.626Z,14.28
2018-08-11T02:28:08.744Z,14.21
2018-08-11T02:30:36.822Z,14.15
2018-08-11T02:38:12.691Z,14.18
2018-08-11T02:40:40.768Z,14.26
2018-08-11T02:43:08.867Z,14.20
2018-08-11T02:45:36.962Z,14.13
2018-08-11T02:48:05.384Z,14.19
2018-08-11T02:50:33.459Z,14.40
2018-08-11T02:53:01.583Z,14.25
2018-08-11T02:55:29.774Z,14.46
2018-08-11T02:57:57.889Z,14.54
2018-08-11T03:00:26.038Z,14.50
2018-08-11T03:02:54.157Z,14.51
2018-08-11T03:05:22.286Z,14.49
2018-08-11T03:07:50.446Z,14.44
2018-08-11T03:10:18.548Z,14.49
2018-08-11T03:12:46.858Z,14.42
2018-08-11T03:15:14.992Z,14.44
2018-08-11T03:17:43.116Z,14.49
2018-08-11T03:20:12.881Z,14.42
2018-08-11T03:22:41.049Z,14.48
2018-08-11T03:25:11.600Z,14.48
2018-08-11T03:27:39.831Z,14.55
2018-08-11T03:30:08.254Z,14.64
2018-08-11T03:32:36.550Z,14.65
2018-08-11T03:35:05.223Z,14.63
2018-08-11T03:37:33.541Z,14.65
2018-08-11T03:40:01.638Z,14.71
2018-08-11T03:42:29.782Z,14.71
2018-08-11T03:44:57.886Z,14.73
2018-08-11T03:47:26.052Z,14.76
2018-08-11T03:49:54.193Z,14.72
2018-08-11T03:52:22.403Z,14.73
2018-08-11T03:54:50.541Z,14.82
2018-08-11T03:57:18.725Z,14.87
2018-08-11T03:59:46.893Z,14.86
2018-08-11T04:02:15.057Z,14.91
2018-08-11T04:04:43.222Z,14.89
2018-08-11T04:07:11.385Z,14.89
2018-08-11T04:09:39.572Z,14.94
2018-08-11T04:12:07.837Z,14.95
2018-08-11T04:14:36.030Z,14.90
2018-08-11T04:17:04.237Z,14.93
2018-08-11T04:19:32.412Z,15.00
2018-08-11T04:22:00.600Z,15.02
2018-08-11T04:24:28.782Z,15.11
2018-08-11T04:26:56.900Z,15.09
2018-08-11T04:29:25.053Z,15.09
2018-08-11T04:31:53.217Z,15.09
2018-08-11T04:34:21.387Z,15.12
2018-08-11T04:36:49.563Z,15.01
2018-08-11T04:39:17.727Z,15.02
2018-08-11T04:41:45.905Z,15.07
2018-08-11T04:44:14.030Z,15.10
2018-08-11T04:46:42.204Z,15.08
2018-08-11T04:49:10.959Z,15.11
2018-08-11T04:51:39.087Z,15.10
2018-08-11T04:54:07.230Z,15.02
2018-08-11T04:56:35.365Z,15.02
2018-08-11T04:59:03.541Z,14.86
2018-08-11T05:01:31.717Z,14.67
2018-08-11T05:03:59.894Z,14.54
2018-08-11T05:06:28.031Z,14.45
2018-08-11T05:08:56.200Z,14.07
2018-08-11T05:11:24.463Z,13.94
2018-08-11T05:13:52.592Z,13.88
2018-08-11T05:16:20.751Z,13.83
2018-08-11T05:18:48.893Z,13.67
2018-08-11T05:21:17.104Z,13.67
2018-08-11T05:23:45.256Z,13.56
2018-08-11T05:26:13.422Z,13.62
2018-08-11T05:28:41.793Z,13.54
2018-08-11T05:31:10.029Z,13.46
2018-08-11T05:33:38.198Z,13.59
2018-08-11T05:36:06.757Z,13.62
2018-08-11T05:38:35.254Z,13.65
2018-08-11T05:41:03.398Z,13.53
2018-08-11T05:43:31.559Z,13.48
2018-08-11T05:45:59.757Z,13.39
2018-08-11T05:48:27.955Z,13.52
2018-08-11T05:50:56.174Z,13.54
2018-08-11T05:53:24.359Z,13.67
2018-08-11T05:55:52.613Z,13.80
2018-08-11T05:58:20.759Z,13.93
2018-08-11T06:00:49.100Z,13.94
2018-08-11T06:03:17.293Z,13.90
2018-08-11T06:05:45.453Z,14.23
2018-08-11T06:08:13.622Z,14.56
2018-08-11T06:10:41.775Z,15.25
2018-08-11T06:13:10.354Z,15.35
2018-08-11T06:15:38.527Z,15.16
2018-08-11T06:18:06.722Z,14.91
2018-08-11T06:20:34.870Z,14.56
2018-08-11T06:23:03.045Z,14.41
2018-08-11T06:25:31.229Z,14.36
2018-08-11T06:27:59.426Z,14.26
2018-08-11T06:30:27.592Z,13.96
2018-08-11T06:32:55.819Z,13.90
2018-08-11T06:35:24.060Z,14.21
2018-08-11T06:37:52.202Z,14.71
2018-08-11T06:40:20.460Z,16.77
2018-08-11T06:42:48.687Z,17.42
2018-08-11T06:45:16.850Z,16.72
2018-08-11T06:47:45.016Z,16.25
2018-08-11T06:50:13.172Z,16.70
2018-08-11T06:52:41.338Z,16.75
2018-08-11T06:55:09.577Z,16.78
2018-08-11T06:57:37.752Z,16.76
2018-08-11T07:00:05.893Z,16.54
2018-08-11T07:02:34.146Z,15.91
2018-08-11T07:05:02.355Z,16.05
2018-08-11T07:07:30.480Z,17.46
2018-08-11T07:09:58.680Z,19.18
2018-08-11T07:12:26.813Z,18.44
2018-08-11T07:14:54.942Z,18.81
2018-08-11T07:17:23.136Z,19.68
2018-08-11T07:19:51.247Z,19.60
2018-08-11T07:22:19.756Z,19.89
2018-08-11T07:24:47.922Z,19.99
2018-08-11T07:27:16.083Z,19.59
2018-08-11T07:29:44.258Z,20.06
2018-08-11T07:32:12.521Z,18.57
2018-08-11T07:34:40.715Z,17.71
2018-08-11T07:37:08.885Z,17.41
2018-08-11T07:39:37.048Z,17.26
2018-08-11T07:42:05.253Z,16.71
2018-08-11T07:44:33.514Z,16.76
2018-08-11T07:47:01.676Z,17.06
2018-08-11T07:49:29.834Z,17.65
2018-08-11T07:51:57.959Z,18.48
2018-08-11T07:54:26.423Z,19.99
2018-08-11T07:56:54.573Z,20.69
2018-08-11T07:59:22.754Z,21.04
2018-08-11T08:01:50.927Z,20.74
2018-08-11T08:04:19.151Z,20.89
2018-08-11T08:06:47.365Z,20.61
2018-08-11T08:09:15.533Z,19.26
2018-08-11T08:11:43.694Z,19.11
2018-08-11T08:14:12.678Z,19.03
2018-08-11T08:16:40.854Z,18.96
2018-08-11T08:19:09.221Z,19.19
2018-08-11T08:21:37.383Z,20.41
2018-08-11T08:24:05.596Z,20.88
2018-08-11T08:26:33.969Z,20.92
2018-08-11T08:29:02.323Z,20.83
2018-08-11T08:31:30.457Z,20.85
2018-08-11T08:33:58.688Z,20.90
2018-08-11T08:36:26.772Z,21.28
2018-08-11T08:38:55.093Z,20.93
2018-08-11T08:41:23.209Z,21.66
2018-08-11T08:43:51.358Z,20.75
2018-08-11T08:46:19.634Z,21.45
2018-08-11T08:48:47.834Z,21.38
2018-08-11T08:51:16.012Z,21.13
2018-08-11T08:53:44.594Z,20.98
2018-08-11T08:56:12.742Z,21.92
2018-08-11T08:58:40.925Z,22.06
2018-08-11T09:01:09.063Z,22.08
2018-08-11T09:03:37.286Z,21.95
2018-08-11T09:06:05.454Z,20.73
2018-08-11T09:08:33.624Z,19.79
2018-08-11T09:11:01.774Z,19.10
2018-08-11T09:13:29.921Z,19.77
2018-08-11T09:15:58.072Z,19.52
2018-08-11T09:18:26.231Z,18.84
2018-08-11T09:20:54.418Z,19.30
2018-08-11T09:23:22.569Z,20.46
2018-08-11T09:25:50.717Z,20.51
2018-08-11T09:28:18.825Z,20.21
2018-08-11T09:30:47.007Z,19.45
2018-08-11T09:33:15.181Z,19.17
2018-08-11T09:35:43.316Z,19.00
2018-08-11T09:38:11.903Z,19.10
2018-08-11T09:40:40.085Z,19.14
2018-08-11T09:43:09.352Z,18.75
2018-08-11T09:45:37.532Z,18.22
2018-08-11T09:48:05.681Z,18.04
2018-08-11T09:50:33.790Z,18.04
2018-08-11T09:53:01.945Z,18.07
2018-08-11T09:55:30.175Z,17.95
2018-08-11T09:57:58.312Z,17.93
2018-08-11T10:00:31.911Z,17.42
2018-08-11T10:03:00.015Z,17.21
2018-08-11T10:05:28.148Z,17.11
2018-08-11T10:07:56.305Z,17.04
2018-08-11T10:10:25.161Z,16.82
2018-08-11T10:12:53.237Z,16.76
2018-08-11T10:15:21.355Z,16.43
2018-08-11T10:17:49.493Z,16.04
2018-08-11T10:20:17.677Z,15.74
2018-08-11T10:22:45.805Z,15.46
2018-08-11T10:25:13.969Z,15.14
2018-08-11T10:27:42.114Z,14.99
2018-08-11T10:30:10.445Z,14.84
2018-08-11T10:32:38.596Z,15.06
2018-08-11T10:35:06.814Z,15.58
2018-08-11T10:37:35.036Z,15.66
2018-08-11T10:40:03.235Z,16.40
2018-08-11T10:42:31.397Z,16.78
2018-08-11T10:44:59.598Z,17.17
2018-08-11T10:47:27.785Z,17.36
2018-08-11T10:49:55.940Z,17.33
2018-08-11T10:52:24.068Z,17.09
2018-08-11T10:54:52.210Z,16.84
2018-08-11T10:57:20.343Z,16.30
2018-08-11T10:59:48.497Z,16.33
2018-08-11T11:02:16.637Z,16.53
2018-08-11T11:04:44.784Z,16.80
2018-08-11T11:07:12.904Z,17.28
2018-08-11T11:09:41.017Z,17.59
2018-08-11T11:12:09.401Z,17.89
2018-08-11T11:14:37.517Z,17.80
2018-08-11T11:17:05.627Z,17.98
2018-08-11T11:19:33.735Z,18.01
2018-08-11T11:22:01.889Z,18.03
2018-08-11T11:24:30.014Z,18.03
2018-08-11T11:26:58.190Z,18.35
2018-08-11T11:29:26.342Z,18.38
2018-08-11T11:31:54.497Z,18.58
2018-08-11T11:34:22.703Z,18.85
2018-08-11T11:36:50.839Z,19.10
2018-08-11T11:39:19.008Z,18.90
2018-08-11T11:41:47.181Z,18.77
2018-08-11T11:44:15.294Z,18.87
2018-08-11T11:46:43.413Z,18.99
2018-08-11T11:49:11.529Z,18.94
2018-08-11T11:51:39.692Z,18.90
2018-08-11T11:54:07.629Z,18.98
2018-08-11T11:56:35.938Z,19.31
2018-08-11T11:59:04.065Z,19.19
2018-08-11T12:01:32.197Z,19.00
2018-08-11T12:04:00.348Z,18.79
2018-08-11T12:06:28.496Z,18.73
2018-08-11T12:08:56.699Z,18.66
2018-08-11T12:11:24.883Z,18.55
2018-08-11T12:13:53.039Z,18.16
2018-08-11T12:16:21.239Z,17.93
2018-08-11T12:18:49.389Z,17.49
2018-08-11T12:21:17.518Z,17.33
2018-08-11T12:23:45.621Z,17.16
2018-08-11T12:26:13.777Z,17.15
2018-08-11T12:28:41.956Z,17.01
2018-08-11T12:31:10.928Z,16.99
2018-08-11T12:33:39.154Z,16.65
2018-08-11T12:36:07.291Z,16.56
2018-08-11T12:38:35.437Z,16.37
2018-08-11T12:41:03.567Z,16.31
2018-08-11T12:43:31.743Z,16.36
2018-08-11T12:45:59.957Z,16.31
2018-08-11T12:48:28.039Z,16.30
2018-08-11T12:50:56.183Z,16.30
2018-08-11T12:53:24.445Z,16.26
2018-08-11T12:55:52.589Z,16.19
2018-08-11T12:58:20.725Z,16.27
2018-08-11T13:00:48.841Z,16.32
2018-08-11T13:03:17.019Z,16.61
2018-08-11T13:05:45.212Z,16.91
2018-08-11T13:08:13.427Z,16.95
2018-08-11T13:10:41.566Z,16.87
2018-08-11T13:13:10.323Z,16.75
2018-08-11T13:15:38.479Z,16.83
2018-08-11T13:18:06.678Z,16.79
2018-08-11T13:20:34.883Z,16.74
2018-08-11T13:23:03.005Z,16.89
2018-08-11T13:25:31.125Z,17.34
2018-08-11T13:27:59.253Z,17.34
2018-08-11T13:30:27.418Z,17.39
2018-08-11T13:32:55.585Z,17.35
2018-08-11T13:35:23.760Z,17.53
2018-08-11T13:37:51.881Z,17.72
2018-08-11T13:40:20.031Z,18.05
2018-08-11T13:42:48.177Z,18.14
2018-08-11T13:45:16.401Z,18.10
2018-08-11T13:47:44.564Z,17.84
2018-08-11T13:50:12.729Z,18.11
2018-08-11T13:52:40.897Z,18.43
2018-08-11T13:55:09.144Z,18.46
2018-08-11T13:57:37.268Z,18.75
2018-08-11T14:00:06.459Z,18.93
2018-08-11T14:02:34.629Z,18.93
2018-08-11T14:05:02.793Z,18.52
2018-08-11T14:07:30.943Z,17.98
2018-08-11T14:09:59.124Z,17.21
2018-08-11T14:12:27.253Z,16.85
2018-08-11T14:14:55.407Z,16.33
2018-08-11T14:17:23.533Z,16.36
2018-08-11T14:19:51.650Z,16.59
2018-08-11T14:22:19.783Z,16.84
2018-08-11T14:24:47.938Z,17.15
2018-08-11T14:27:16.091Z,16.99
2018-08-11T14:29:44.229Z,17.04
2018-08-11T14:32:12.374Z,17.16
2018-08-11T14:34:40.592Z,16.93
2018-08-11T14:37:08.685Z,16.83
2018-08-11T14:39:36.861Z,16.72
2018-08-11T14:42:05.000Z,16.62
2018-08-11T14:44:33.272Z,16.59
2018-08-11T14:47:01.342Z,16.43
2018-08-11T14:49:29.501Z,16.27
2018-08-11T14:51:57.653Z,15.99
2018-08-11T14:54:25.815Z,15.76
2018-08-11T14:56:53.967Z,15.68
2018-08-11T14:59:22.911Z,15.70
2018-08-11T15:01:51.058Z,15.46
2018-08-11T15:04:19.203Z,15.41
2018-08-11T15:06:47.323Z,15.35
2018-08-11T15:09:15.480Z,15.46
2018-08-11T15:11:43.657Z,15.65
2018-08-11T15:14:11.785Z,15.98
2018-08-11T15:16:39.902Z,16.10
2018-08-11T15:19:08.038Z,16.37
2018-08-11T15:21:36.177Z,16.30
2018-08-11T15:24:04.275Z,16.23
2018-08-11T15:26:32.460Z,16.22
2018-08-11T15:29:00.949Z,16.27
2018-08-11T15:31:29.097Z,16.32
2018-08-11T15:33:57.253Z,16.36
2018-08-11T15:36:25.414Z,16.36
2018-08-11T15:38:53.556Z,16.51
2018-08-11T15:41:21.666Z,16.71
2018-08-11T15:43:49.806Z,16.87
2018-08-11T15:46:17.942Z,16.94
2018-08-11T15:48:46.179Z,16.98
2018-08-11T15:51:14.455Z,17.03
2018-08-11T15:53:42.682Z,17.06
2018-08-11T15:56:10.819Z,17.01
2018-08-11T15:58:39.000Z,16.99
2018-08-11T16:01:07.587Z,16.95
2018-08-11T16:03:35.750Z,16.89
2018-08-11T16:06:03.922Z,16.85
2018-08-11T16:08:32.095Z,16.76
2018-08-11T16:11:00.230Z,16.75
2018-08-11T16:13:28.403Z,16.72
2018-08-11T16:15:56.561Z,16.68
2018-08-11T16:18:24.720Z,16.74
2018-08-11T16:20:52.887Z,16.71
2018-08-11T16:23:21.114Z,16.74
2018-08-11T16:25:49.271Z,16.78
2018-08-11T16:28:17.464Z,16.77
2018-08-11T16:30:45.640Z,16.76
2018-08-11T16:33:13.816Z,16.81
2018-08-11T16:35:42.081Z,16.84
2018-08-11T16:38:10.240Z,16.93
2018-08-11T16:40:38.411Z,16.82
2018-08-11T16:43:06.701Z,16.86
2018-08-11T16:45:34.865Z,16.84
2018-08-11T16:48:02.997Z,16.87
2018-08-11T16:50:31.219Z,16.88
2018-08-11T16:52:59.444Z,16.87
2018-08-11T16:55:27.661Z,16.95
2018-08-11T16:57:55.855Z,16.92
2018-08-11T17:00:24.073Z,16.91
2018-08-11T17:02:52.177Z,16.87
2018-08-11T17:05:20.383Z,16.83
2018-08-11T17:07:48.547Z,16.88
2018-08-11T17:10:16.719Z,16.91
2018-08-11T17:12:44.933Z,16.90
2018-08-11T17:15:13.102Z,16.83
2018-08-11T17:17:41.293Z,16.79
2018-08-11T17:20:09.435Z,16.74
2018-08-11T17:22:37.573Z,16.79
2018-08-11T17:25:05.837Z,16.88
2018-08-11T17:27:34.271Z,16.79
2018-08-11T17:30:02.408Z,16.74
2018-08-11T17:32:30.620Z,16.67
2018-08-11T17:34:58.733Z,16.63
2018-08-11T17:37:26.878Z,16.67
2018-08-11T17:39:55.059Z,16.70
2018-08-11T17:42:23.194Z,16.67
2018-08-11T17:44:51.492Z,16.54
2018-08-11T17:47:19.634Z,16.53
2018-08-11T17:49:47.778Z,16.44
2018-08-11T17:52:15.913Z,16.42
2018-08-11T17:54:44.058Z,16.39
2018-08-11T17:57:12.749Z,16.31
2018-08-11T17:59:40.900Z,16.24
2018-08-11T18:02:09.019Z,16.24
2018-08-11T18:04:37.167Z,16.26
2018-08-11T18:07:05.856Z,16.37
2018-08-11T18:09:34.123Z,16.40
2018-08-11T18:12:02.284Z,16.31
2018-08-11T18:14:30.425Z,16.36
2018-08-11T18:16:58.581Z,16.32
2018-08-11T18:19:26.668Z,16.33
2018-08-11T18:21:54.919Z,16.26
2018-08-11T18:24:23.087Z,16.21
2018-08-11T18:26:51.723Z,16.20
2018-08-11T18:29:19.826Z,16.12
2018-08-11T18:31:47.963Z,16.08
2018-08-11T18:34:16.103Z,16.12
2018-08-11T18:36:44.237Z,16.07
2018-08-11T18:39:13.714Z,16.05
2018-08-11T18:41:42.101Z,15.98
2018-08-11T18:44:10.308Z,16.02
2018-08-11T18:46:38.437Z,15.92
2018-08-11T18:49:06.672Z,15.88
2018-08-11T18:51:35.016Z,15.79
2018-08-11T18:54:03.155Z,15.73
2018-08-11T18:56:31.296Z,15.63
2018-08-11T18:58:59.420Z,15.68
2018-08-11T19:01:27.543Z,15.67
2018-08-11T19:03:55.705Z,15.69
2018-08-11T19:06:23.830Z,15.69
2018-08-11T19:08:51.951Z,15.67
2018-08-11T19:11:20.127Z,15.64
2018-08-11T19:13:48.303Z,15.61
2018-08-11T19:16:16.442Z,15.56
2018-08-11T19:18:44.536Z,15.50
2018-08-11T19:21:12.678Z,15.44
2018-08-11T19:23:40.886Z,15.38
2018-08-11T19:26:09.049Z,15.34
2018-08-11T19:28:37.173Z,15.33
2018-08-11T19:31:05.298Z,15.27
2018-08-11T19:33:33.473Z,15.22
2018-08-11T19:36:01.660Z,15.11
2018-08-11T19:38:29.777Z,15.08
2018-08-11T19:40:57.985Z,15.01
2018-08-11T19:43:26.084Z,15.02
2018-08-11T19:45:54.256Z,14.99
2018-08-11T19:48:22.353Z,14.96
2018-08-11T19:50:50.489Z,14.84
2018-08-11T19:53:18.716Z,14.84
2018-08-11T19:55:46.824Z,14.81
2018-08-11T19:58:14.941Z,14.81
2018-08-11T20:00:43.100Z,14.77
2018-08-11T20:03:11.565Z,14.83
2018-08-11T20:05:39.687Z,14.81
2018-08-11T20:08:07.852Z,14.76
2018-08-11T20:10:35.996Z,14.73
2018-08-11T20:13:04.105Z,14.70
2018-08-11T20:15:32.209Z,14.67
2018-08-11T20:18:00.364Z,14.70
2018-08-11T20:20:28.487Z,14.61
2018-08-11T20:22:56.621Z,14.56
2018-08-11T20:25:24.854Z,14.56
2018-08-11T20:27:52.873Z,14.56
2018-08-11T20:30:21.032Z,14.61
2018-08-11T20:32:49.129Z,14.59
2018-08-11T20:35:17.280Z,14.60
2018-08-11T20:37:45.372Z,14.57
2018-08-11T20:40:13.544Z,14.50
2018-08-11T20:42:42.146Z,14.43
2018-08-11T20:45:10.390Z,14.44
2018-08-11T20:47:38.844Z,14.47
2018-08-11T20:50:08.014Z,14.50
2018-08-11T20:52:36.301Z,14.45
2018-08-11T20:55:05.585Z,14.39
2018-08-11T20:57:33.800Z,14.35
2018-08-11T21:00:01.999Z,14.32
2018-08-11T21:02:30.116Z,14.31
2018-08-11T21:04:58.294Z,14.24
2018-08-11T21:07:26.409Z,14.23
2018-08-11T21:09:54.595Z,14.18
2018-08-11T21:12:22.734Z,14.11
2018-08-11T21:14:50.894Z,14.12
2018-08-11T21:17:19.061Z,14.10
2018-08-11T21:19:47.222Z,14.03
2018-08-11T21:22:15.346Z,13.98
2018-08-11T21:24:43.465Z,13.98
2018-08-11T21:27:11.604Z,14.03
2018-08-11T21:29:39.737Z,14.12
2018-08-11T21:32:07.897Z,14.14
2018-08-11T21:34:36.013Z,14.12
2018-08-11T21:37:04.193Z,14.15
2018-08-11T21:39:32.259Z,14.14
2018-08-11T21:42:00.414Z,14.10
2018-08-11T21:44:28.529Z,14.07
2018-08-11T21:46:56.669Z,14.09
2018-08-11T21:49:24.832Z,14.08
2018-08-11T21:51:53.029Z,14.13
2018-08-11T21:54:21.215Z,14.18
2018-08-11T21:56:49.346Z,14.27
2018-08-11T21:59:17.513Z,14.35
2018-08-11T22:01:45.655Z,14.44
2018-08-11T22:04:13.784Z,14.45
2018-08-11T22:06:41.931Z,14.45
2018-08-11T22:09:11.921Z,14.51
2018-08-11T22:11:40.069Z,14.57
2018-08-11T22:14:08.800Z,14.62
2018-08-11T22:16:36.960Z,14.70
2018-08-11T22:19:05.480Z,14.71
2018-08-11T22:21:33.634Z,14.62
2018-08-11T22:24:01.781Z,14.54
2018-08-11T22:26:29.969Z,14.44
2018-08-11T22:28:58.113Z,14.38
2018-08-11T22:31:26.289Z,14.32
2018-08-11T22:33:54.493Z,14.26
2018-08-11T22:36:22.649Z,14.24
2018-08-11T22:38:50.793Z,14.14
2018-08-11T22:41:18.930Z,14.14
2018-08-11T22:43:47.094Z,14.12
2018-08-11T22:46:15.205Z,14.14
2018-08-11T22:48:43.337Z,14.11
2018-08-11T22:51:11.477Z,14.16
2018-08-11T22:53:39.602Z,14.13
2018-08-11T22:56:07.782Z,14.09
2018-08-11T22:58:35.950Z,14.09
2018-08-11T23:01:04.138Z,14.08
2018-08-11T23:03:32.340Z,14.03
2018-08-11T23:06:00.518Z,14.01
2018-08-11T23:08:28.617Z,13.99
2018-08-11T23:10:56.752Z,13.95
2018-08-11T23:13:24.893Z,13.93
2018-08-11T23:15:53.057Z,13.90
2018-08-11T23:18:21.162Z,13.87
2018-08-11T23:20:49.326Z,13.86
2018-08-11T23:23:17.478Z,13.81
2018-08-11T23:25:45.611Z,13.79
2018-08-11T23:28:13.788Z,13.79
2018-08-11T23:30:41.929Z,13.77
2018-08-11T23:33:10.829Z,13.80
2018-08-11T23:35:39.000Z,13.79
2018-08-11T23:38:07.274Z,13.85
2018-08-11T23:40:35.390Z,13.79
2018-08-11T23:48:15.680Z,13.98
2018-08-11T23:50:43.870Z,14.07
2018-08-11T23:53:11.982Z,13.95
2018-08-11T23:55:40.086Z,13.95
2018-08-11T23:58:08.253Z,13.99
